createdAt,value
2019-04-14T00:02:07.378Z,2.52
2019-04-14T00:04:38.241Z,2.22
2019-04-14T00:07:08.027Z,2.75
2019-04-14T00:09:38.027Z,2.83
2019-04-14T00:12:08.987Z,1.52
2019-04-14T00:14:38.724Z,2.72
2019-04-14T00:17:10.866Z,1.45
2019-04-14T00:19:41.226Z,2.47
2019-04-14T00:22:11.698Z,2.95
2019-04-14T00:24:42.418Z,2.45
2019-04-14T00:27:15.539Z,2.37
2019-04-14T00:29:45.781Z,3.72
2019-04-14T00:32:16.340Z,2.05
2019-04-14T00:34:57.178Z,2.17
2019-04-14T00:37:31.593Z,2.33
2019-04-14T00:40:03.944Z,4.00
2019-04-14T00:42:38.728Z,2.60
2019-04-14T00:45:33.930Z,2.30
2019-04-14T00:48:05.633Z,2.20
2019-04-14T00:50:32.520Z,2.85
2019-04-14T00:53:01.812Z,3.15
2019-04-14T00:55:31.459Z,3.42
2019-04-14T00:58:01.638Z,2.42
2019-04-14T01:00:34.778Z,3.75
2019-04-14T01:03:24.452Z,2.52
2019-04-14T01:05:54.770Z,3.15
2019-04-14T01:08:24.922Z,3.37
2019-04-14T01:10:54.275Z,4.47
2019-04-14T01:13:24.539Z,3.47
2019-04-14T01:16:03.756Z,2.87
2019-04-14T01:18:25.957Z,2.95
2019-04-14T01:20:57.757Z,2.65
2019-04-14T01:23:28.220Z,2.77
2019-04-14T01:25:58.471Z,2.80
2019-04-14T01:28:28.693Z,2.55
2019-04-14T01:30:58.980Z,2.17
2019-04-14T01:33:29.398Z,2.70
2019-04-14T01:35:59.618Z,3.65
2019-04-14T01:38:29.711Z,2.85
2019-04-14T01:40:59.940Z,3.42
2019-04-14T01:43:29.991Z,3.45
2019-04-14T01:46:09.619Z,3.25
2019-04-14T01:48:32.439Z,2.98
2019-04-14T01:51:18.760Z,2.62
2019-04-14T01:54:08.282Z,2.45
2019-04-14T01:56:55.925Z,2.27
2019-04-14T01:59:26.263Z,2.55
2019-04-14T02:01:57.215Z,2.70
2019-04-14T02:04:26.786Z,4.65
2019-04-14T02:06:57.278Z,3.17
2019-04-14T02:09:31.627Z,3.80
2019-04-14T02:12:01.623Z,2.92
2019-04-14T02:14:32.179Z,3.62
2019-04-14T02:17:04.235Z,3.25
2019-04-14T02:19:32.757Z,2.75
2019-04-14T02:22:02.737Z,3.12
2019-04-14T02:24:33.065Z,4.03
2019-04-14T02:27:03.501Z,4.47
2019-04-14T02:29:34.035Z,4.05
2019-04-14T02:32:42.525Z,4.05
2019-04-14T02:35:24.153Z,3.95
2019-04-14T02:37:58.407Z,2.42
2019-04-14T02:40:55.920Z,3.55
2019-04-14T02:43:04.686Z,6.00
2019-04-14T02:48:15.147Z,4.58
2019-04-14T02:50:45.188Z,3.77
2019-04-14T02:53:23.793Z,2.52
2019-04-14T02:56:05.438Z,4.25
2019-04-14T02:58:28.501Z,4.10
2019-04-14T03:00:58.426Z,3.83
2019-04-14T03:03:33.872Z,3.65
2019-04-14T03:06:05.757Z,3.60
2019-04-14T03:08:39.166Z,4.58
2019-04-14T03:11:04.048Z,5.12
2019-04-14T03:13:40.817Z,4.03
2019-04-14T03:16:02.529Z,3.55
2019-04-14T03:18:37.886Z,3.90
2019-04-14T03:21:21.377Z,3.80
2019-04-14T03:27:10.157Z,4.30
2019-04-14T03:29:41.177Z,4.12
2019-04-14T03:32:27.986Z,4.53
2019-04-14T03:35:13.200Z,3.65
2019-04-14T03:39:52.158Z,3.08
2019-04-14T03:42:31.762Z,2.60
2019-04-14T03:44:56.778Z,2.85
2019-04-14T03:47:24.941Z,3.60
2019-04-14T03:50:04.276Z,3.12
2019-04-14T03:52:48.348Z,5.03
2019-04-14T03:54:50.165Z,4.33
2019-04-14T03:57:06.522Z,3.08
2019-04-14T03:59:36.759Z,5.12
2019-04-14T04:02:07.417Z,3.02
2019-04-14T04:04:37.942Z,2.50
2019-04-14T04:07:08.210Z,5.45
2019-04-14T04:09:39.280Z,3.00
2019-04-14T04:12:09.778Z,3.25
2019-04-14T04:14:39.876Z,4.85
2019-04-14T04:17:23.336Z,5.37
2019-04-14T04:20:09.319Z,4.05
2019-04-14T04:22:43.442Z,3.05
2019-04-14T04:25:14.430Z,4.78
2019-04-14T04:27:48.408Z,3.95
2019-04-14T04:30:20.844Z,4.30
2019-04-14T04:32:57.976Z,5.12
2019-04-14T04:35:37.937Z,3.58
2019-04-14T04:38:11.840Z,4.45
2019-04-14T04:40:41.870Z,4.92
2019-04-14T04:43:12.468Z,3.30
2019-04-14T04:45:43.015Z,2.25
2019-04-14T04:48:13.168Z,5.50
2019-04-14T04:50:43.160Z,3.42
2019-04-14T04:53:13.660Z,4.55
2019-04-14T04:55:43.861Z,3.45
2019-04-14T04:58:13.270Z,5.30
2019-04-14T05:00:43.803Z,2.80
2019-04-14T05:03:14.556Z,4.65
2019-04-14T05:06:05.379Z,3.33
2019-04-14T05:08:35.572Z,2.80
2019-04-14T05:11:07.511Z,3.33
2019-04-14T05:13:38.153Z,4.65
2019-04-14T05:16:08.585Z,3.72
2019-04-14T05:18:37.877Z,3.33
2019-04-14T05:21:08.096Z,2.87
2019-04-14T05:23:38.767Z,3.33
2019-04-14T05:26:09.164Z,3.40
2019-04-14T05:28:39.623Z,4.65
2019-04-14T05:31:12.048Z,3.25
2019-04-14T05:33:40.436Z,4.45
2019-04-14T05:36:10.708Z,4.30
2019-04-14T05:38:41.029Z,3.98
2019-04-14T05:41:11.414Z,4.35
2019-04-14T05:43:48.950Z,4.40
2019-04-14T05:46:12.083Z,5.10
2019-04-14T05:48:42.437Z,4.30
2019-04-14T05:51:13.113Z,4.03
2019-04-14T05:53:43.672Z,5.92
2019-04-14T05:56:14.269Z,4.08
2019-04-14T05:58:44.852Z,3.75
2019-04-14T06:01:16.072Z,3.30
2019-04-14T06:03:45.447Z,3.95
2019-04-14T06:06:21.159Z,3.67
2019-04-14T06:09:09.898Z,4.17
2019-04-14T06:11:39.188Z,5.10
2019-04-14T06:14:08.498Z,3.27
2019-04-14T06:16:37.819Z,4.95
2019-04-14T06:19:07.155Z,3.95
2019-04-14T06:21:36.449Z,4.00
2019-04-14T06:24:06.959Z,7.45
2019-04-14T06:26:38.165Z,4.78
2019-04-14T06:29:07.173Z,4.42
2019-04-14T06:31:44.063Z,3.80
2019-04-14T06:34:24.159Z,4.67
2019-04-14T06:37:08.191Z,5.80
2019-04-14T06:42:30.155Z,4.60
2019-04-14T06:44:59.452Z,4.55
2019-04-14T06:47:28.732Z,3.87
2019-04-14T06:50:05.166Z,4.55
2019-04-14T06:52:34.442Z,5.22
2019-04-14T06:55:04.197Z,6.40
2019-04-14T06:57:36.092Z,3.87
2019-04-14T07:00:05.835Z,4.22
2019-04-14T07:02:35.184Z,5.87
2019-04-14T07:05:06.030Z,5.53
2019-04-14T07:07:35.430Z,4.17
2019-04-14T07:10:06.309Z,5.78
2019-04-14T07:12:35.590Z,4.85
2019-04-14T07:15:06.932Z,4.47
2019-04-14T07:17:36.225Z,6.55
2019-04-14T07:20:06.583Z,5.85
2019-04-14T07:22:35.844Z,4.72
2019-04-14T07:25:05.421Z,5.67
2019-04-14T07:27:34.716Z,5.28
2019-04-14T07:33:17.603Z,5.10
2019-04-14T07:35:48.540Z,5.92
2019-04-14T07:38:28.465Z,5.37
2019-04-14T07:41:17.558Z,6.80
2019-04-14T07:44:06.513Z,5.20
2019-04-14T07:46:53.906Z,8.50
2019-04-14T07:49:32.828Z,5.92
2019-04-14T07:52:12.356Z,5.55
2019-04-14T07:54:46.267Z,7.42
2019-04-14T07:57:33.856Z,4.78
2019-04-14T08:00:06.610Z,6.03
2019-04-14T08:02:43.514Z,6.28
2019-04-14T08:05:14.415Z,6.20
2019-04-14T08:07:56.374Z,9.43
2019-04-14T08:10:27.393Z,6.25
2019-04-14T08:12:56.711Z,6.67
2019-04-14T08:15:26.037Z,7.70
2019-04-14T08:17:55.366Z,8.73
2019-04-14T08:20:27.583Z,8.00
2019-04-14T08:22:57.797Z,5.97
2019-04-14T08:25:26.534Z,8.90
2019-04-14T08:27:55.830Z,7.87
2019-04-14T08:30:26.093Z,7.37
2019-04-14T08:32:55.298Z,9.08
2019-04-14T08:35:31.731Z,6.58
2019-04-14T08:38:01.005Z,6.80
2019-04-14T08:40:31.631Z,6.83
2019-04-14T08:43:05.471Z,7.03
2019-04-14T08:45:52.658Z,7.75
2019-04-14T08:48:32.751Z,9.03
2019-04-14T08:51:12.540Z,6.67
2019-04-14T08:54:08.908Z,7.65
2019-04-14T08:56:52.349Z,8.35
2019-04-14T08:59:32.073Z,9.93
2019-04-14T09:02:03.023Z,9.45
2019-04-14T09:04:40.028Z,9.48
2019-04-14T09:07:10.964Z,10.25
2019-04-14T09:09:41.901Z,9.58
2019-04-14T09:12:26.152Z,10.13
2019-04-14T09:17:29.745Z,7.87
2019-04-14T09:20:00.050Z,8.65
2019-04-14T09:22:29.361Z,10.88
2019-04-14T09:24:58.635Z,8.85
2019-04-14T09:27:27.936Z,9.68
2019-04-14T09:29:57.318Z,8.63
2019-04-14T09:32:27.575Z,9.65
2019-04-14T09:34:56.873Z,10.43
2019-04-14T09:37:26.171Z,13.45
2019-04-14T09:39:57.082Z,10.20
2019-04-14T09:42:26.357Z,9.58
2019-04-14T09:44:55.644Z,8.90
2019-04-14T09:47:24.943Z,9.98
2019-04-14T09:49:54.235Z,10.40
2019-04-14T09:52:24.835Z,7.67
2019-04-14T09:54:55.116Z,6.17
2019-04-14T09:57:30.193Z,6.50
2019-04-14T09:59:59.502Z,4.10
2019-04-14T10:02:28.809Z,6.50
2019-04-14T10:04:58.089Z,9.15
2019-04-14T10:07:27.448Z,5.47
2019-04-14T10:09:56.728Z,6.65
2019-04-14T10:12:26.196Z,7.08
2019-04-14T10:14:55.483Z,8.15
2019-04-14T10:17:44.207Z,6.67
2019-04-14T10:20:17.012Z,6.65
2019-04-14T10:22:46.311Z,5.42
2019-04-14T10:25:18.976Z,7.20
2019-04-14T10:27:48.325Z,9.00
2019-04-14T10:30:17.614Z,7.47
2019-04-14T10:32:46.915Z,6.83
2019-04-14T10:35:16.194Z,7.78
2019-04-14T10:37:45.472Z,9.10
2019-04-14T10:40:25.945Z,8.88
2019-04-14T10:43:10.648Z,7.75
2019-04-14T10:45:39.967Z,5.78
2019-04-14T10:48:09.237Z,6.90
2019-04-14T10:50:38.524Z,9.05
2019-04-14T10:53:07.842Z,8.25
2019-04-14T10:55:37.124Z,8.98
2019-04-14T10:58:06.473Z,7.58
2019-04-14T11:00:35.796Z,7.97
2019-04-14T11:03:05.076Z,8.50
2019-04-14T11:05:52.300Z,9.35
2019-04-14T11:08:34.455Z,8.90
2019-04-14T11:11:05.025Z,8.28
2019-04-14T11:13:38.336Z,8.05
2019-04-14T11:16:07.725Z,9.90
2019-04-14T11:18:37.003Z,8.65
2019-04-14T11:21:20.823Z,9.78
2019-04-14T11:23:50.092Z,7.25
2019-04-14T11:26:19.482Z,8.80
2019-04-14T11:28:48.799Z,8.80
2019-04-14T11:31:21.368Z,9.25
2019-04-14T11:34:02.696Z,9.25
2019-04-14T11:36:49.916Z,8.85
2019-04-14T11:39:20.820Z,11.15
2019-04-14T11:41:50.159Z,9.85
2019-04-14T11:44:19.431Z,10.13
2019-04-14T11:46:48.753Z,9.25
2019-04-14T11:49:18.031Z,9.75
2019-04-14T11:51:55.136Z,9.13
2019-04-14T11:54:18.296Z,8.83
2019-04-14T11:56:47.584Z,8.15
2019-04-14T11:59:18.507Z,7.45
2019-04-14T12:04:38.067Z,7.67
2019-04-14T12:07:08.997Z,9.75
2019-04-14T12:10:02.242Z,8.60
2019-04-14T12:12:31.620Z,8.53
2019-04-14T12:15:00.935Z,7.83
2019-04-14T12:17:30.306Z,7.83
2019-04-14T12:19:59.607Z,7.53
2019-04-14T12:22:28.914Z,7.42
2019-04-14T12:24:58.201Z,8.50
2019-04-14T12:27:27.511Z,8.98
2019-04-14T12:29:57.071Z,9.18
2019-04-14T12:32:26.908Z,8.50
2019-04-14T12:34:56.232Z,9.25
2019-04-14T12:37:27.107Z,9.70
2019-04-14T12:39:56.418Z,9.23
2019-04-14T12:42:46.797Z,8.40
2019-04-14T12:45:34.419Z,8.58
2019-04-14T12:48:08.279Z,7.62
2019-04-14T12:53:10.712Z,7.35
2019-04-14T12:55:39.999Z,8.05
2019-04-14T12:58:11.319Z,9.50
2019-04-14T13:00:48.151Z,9.10
2019-04-14T13:03:17.530Z,7.67
2019-04-14T13:05:46.836Z,9.30
2019-04-14T13:08:23.707Z,8.95
2019-04-14T13:10:53.022Z,8.08
2019-04-14T13:13:22.303Z,7.90
2019-04-14T13:15:51.601Z,9.18
2019-04-14T13:18:20.901Z,10.35
2019-04-14T13:20:50.266Z,7.00
2019-04-14T13:23:19.595Z,8.25
2019-04-14T13:25:49.114Z,7.28
2019-04-14T13:28:18.403Z,8.88
2019-04-14T13:30:48.980Z,8.18
2019-04-14T13:33:18.263Z,9.10
2019-04-14T13:35:47.571Z,7.15
2019-04-14T13:38:16.863Z,7.47
2019-04-14T13:40:46.167Z,7.72
2019-04-14T13:43:17.105Z,8.05
2019-04-14T13:45:51.926Z,7.25
2019-04-14T13:48:21.232Z,8.08
2019-04-14T13:50:50.515Z,7.90
2019-04-14T13:53:36.051Z,8.40
2019-04-14T13:56:05.408Z,8.55
2019-04-14T13:58:38.127Z,8.50
2019-04-14T14:01:06.732Z,8.40
2019-04-14T14:03:36.036Z,7.85
2019-04-14T14:06:05.424Z,7.22
2019-04-14T14:08:35.806Z,8.68
2019-04-14T14:11:15.665Z,8.43
2019-04-14T14:14:02.966Z,8.43
2019-04-14T14:16:50.107Z,8.63
2019-04-14T14:19:35.992Z,9.08
2019-04-14T14:22:16.123Z,6.92
2019-04-14T14:24:47.186Z,8.40
2019-04-14T14:27:16.532Z,8.83
2019-04-14T14:29:45.782Z,9.03
2019-04-14T14:32:16.711Z,7.22
2019-04-14T14:34:48.321Z,7.70
2019-04-14T14:37:17.623Z,8.13
2019-04-14T14:39:46.950Z,6.45
2019-04-14T14:42:17.356Z,6.45
2019-04-14T14:44:51.267Z,7.90
2019-04-14T14:49:58.147Z,7.05
2019-04-14T14:52:27.445Z,6.28
2019-04-14T14:54:56.759Z,7.17
2019-04-14T14:57:26.019Z,7.45
2019-04-14T14:59:55.330Z,7.65
2019-04-14T15:02:24.647Z,8.15
2019-04-14T15:04:53.940Z,7.45
2019-04-14T15:07:35.526Z,7.22
2019-04-14T15:10:06.733Z,5.65
2019-04-14T15:12:36.112Z,6.78
2019-04-14T15:15:17.362Z,7.37
2019-04-14T15:17:47.658Z,6.30
2019-04-14T15:20:16.931Z,5.87
2019-04-14T15:22:46.260Z,6.40
2019-04-14T15:25:15.549Z,7.25
2019-04-14T15:27:44.913Z,7.53
2019-04-14T15:30:33.652Z,7.50
2019-04-14T15:33:03.007Z,6.65
2019-04-14T15:35:32.466Z,7.37
2019-04-14T15:38:01.772Z,7.45
2019-04-14T15:40:31.076Z,7.60
2019-04-14T15:43:00.381Z,7.08
2019-04-14T15:45:29.685Z,6.17
2019-04-14T15:47:58.975Z,6.37
2019-04-14T15:50:28.288Z,5.90
2019-04-14T15:52:57.576Z,5.35
2019-04-14T15:55:28.131Z,6.35
2019-04-14T15:58:09.008Z,5.28
2019-04-14T16:00:45.817Z,6.10
2019-04-14T16:03:25.533Z,6.30
2019-04-14T16:05:56.485Z,6.15
2019-04-14T16:08:30.152Z,6.47
2019-04-14T16:11:04.976Z,6.35
2019-04-14T16:13:35.901Z,4.28
2019-04-14T16:16:06.846Z,4.53
2019-04-14T16:18:56.092Z,5.67
2019-04-14T16:21:25.378Z,6.80
2019-04-14T16:23:54.760Z,5.55
2019-04-14T16:26:31.520Z,5.25
2019-04-14T16:29:20.776Z,5.42
2019-04-14T16:32:00.833Z,5.40
2019-04-14T16:34:31.842Z,6.60
2019-04-14T16:37:13.364Z,6.65
2019-04-14T16:39:42.770Z,5.85
2019-04-14T16:42:13.044Z,5.60
2019-04-14T16:44:42.414Z,6.15
2019-04-14T16:47:11.742Z,6.22
2019-04-14T16:49:41.106Z,5.85
2019-04-14T16:52:12.023Z,4.62
2019-04-14T16:54:48.833Z,5.97
2019-04-14T16:57:35.202Z,5.83
2019-04-14T17:00:05.790Z,6.15
2019-04-14T17:02:35.760Z,5.03
2019-04-14T17:05:05.588Z,6.03
2019-04-14T17:07:36.555Z,6.45
2019-04-14T17:10:05.933Z,5.55
2019-04-14T17:12:35.801Z,5.42
2019-04-14T17:15:19.349Z,4.72
2019-04-14T17:18:06.513Z,5.45
2019-04-14T17:20:54.038Z,5.58
2019-04-14T17:23:40.403Z,5.53
2019-04-14T17:26:15.206Z,5.87
2019-04-14T17:29:04.476Z,5.05
2019-04-14T17:31:51.491Z,5.45
2019-04-14T17:34:39.099Z,4.33
2019-04-14T17:37:41.340Z,5.45
2019-04-14T17:40:16.203Z,4.97
2019-04-14T17:43:03.639Z,5.25
2019-04-14T17:45:53.148Z,5.75
2019-04-14T17:48:24.184Z,4.83
2019-04-14T17:51:03.160Z,4.65
2019-04-14T17:53:49.126Z,5.78
2019-04-14T17:56:28.849Z,5.28
2019-04-14T17:59:08.667Z,5.83
2019-04-14T18:02:01.109Z,5.30
2019-04-14T18:04:35.174Z,5.45
2019-04-14T18:07:12.150Z,5.37
2019-04-14T18:09:43.150Z,5.28
2019-04-14T18:12:26.112Z,5.58
2019-04-14T18:15:13.735Z,5.22
2019-04-14T18:18:01.132Z,4.70
2019-04-14T18:20:32.248Z,5.95
2019-04-14T18:23:03.839Z,4.42
2019-04-14T18:25:33.155Z,4.58
2019-04-14T18:28:04.092Z,5.70
2019-04-14T18:30:35.121Z,4.97
2019-04-14T18:33:12.853Z,5.30
2019-04-14T18:35:46.459Z,4.90
2019-04-14T18:38:35.547Z,5.70
2019-04-14T18:41:15.068Z,5.03
2019-04-14T18:43:46.078Z,4.85
2019-04-14T18:46:22.716Z,5.12
2019-04-14T18:49:08.481Z,5.10
2019-04-14T18:51:39.415Z,3.90
2019-04-14T18:54:10.370Z,6.00
2019-04-14T18:56:56.563Z,5.12
2019-04-14T18:59:27.487Z,5.37
2019-04-14T19:01:57.489Z,5.37
2019-04-14T19:04:26.773Z,5.45
2019-04-14T19:06:59.422Z,4.97
2019-04-14T19:09:30.019Z,5.10
2019-04-14T19:12:03.799Z,5.12
2019-04-14T19:14:34.906Z,5.30
2019-04-14T19:17:05.863Z,5.55
2019-04-14T19:19:36.765Z,5.70
2019-04-14T19:22:07.156Z,5.53
2019-04-14T19:24:38.085Z,6.10
2019-04-14T19:29:51.120Z,5.50
2019-04-14T19:32:20.466Z,6.58
2019-04-14T19:34:49.754Z,6.40
2019-04-14T19:37:19.067Z,5.58
2019-04-14T19:39:48.372Z,5.42
2019-04-14T19:42:17.652Z,5.67
2019-04-14T19:44:46.956Z,5.62
2019-04-14T19:47:16.225Z,5.42
2019-04-14T19:49:48.062Z,5.55
2019-04-14T19:52:17.421Z,5.50
2019-04-14T19:54:46.707Z,5.45
2019-04-14T19:57:15.999Z,4.83
2019-04-14T19:59:45.431Z,5.37
2019-04-14T20:02:14.722Z,4.50
2019-04-14T20:04:44.022Z,4.60
2019-04-14T20:07:13.310Z,4.75
2019-04-14T20:09:42.591Z,5.78
2019-04-14T20:12:12.155Z,5.05
2019-04-14T20:14:41.559Z,5.10
2019-04-14T20:17:12.493Z,4.70
2019-04-14T20:19:52.673Z,5.05
2019-04-14T20:22:29.669Z,5.65
2019-04-14T20:25:03.542Z,4.53
2019-04-14T20:30:05.734Z,4.75
2019-04-14T20:32:36.680Z,4.70
2019-04-14T20:35:06.551Z,5.62
2019-04-14T20:37:35.908Z,6.22
2019-04-14T20:40:05.873Z,5.70
2019-04-14T20:42:35.208Z,5.42
2019-04-14T20:45:07.198Z,5.45
2019-04-14T20:47:36.508Z,4.60
2019-04-14T20:50:07.241Z,5.70
2019-04-14T20:52:38.799Z,5.30
2019-04-14T20:55:08.277Z,4.90
2019-04-14T20:57:37.649Z,6.42
2019-04-14T21:00:06.918Z,5.95
2019-04-14T21:02:49.507Z,4.42
2019-04-14T21:05:35.295Z,5.50
2019-04-14T21:08:21.230Z,5.22
2019-04-14T21:11:04.110Z,5.37
2019-04-14T21:16:48.968Z,5.90
2019-04-14T21:19:22.743Z,7.40
2019-04-14T21:21:53.710Z,5.67
2019-04-14T21:24:33.611Z,5.90
2019-04-14T21:27:40.557Z,5.58
2019-04-14T21:30:17.354Z,5.72
2019-04-14T21:32:48.315Z,5.25
2019-04-14T21:35:22.232Z,6.28
2019-04-14T21:38:06.613Z,5.03
2019-04-14T21:40:52.598Z,5.60
2019-04-14T21:43:21.896Z,5.87
2019-04-14T21:45:51.193Z,5.75
2019-04-14T21:48:20.508Z,4.05
2019-04-14T21:50:49.799Z,5.62
2019-04-14T21:53:19.072Z,5.40
2019-04-14T21:55:48.367Z,6.42
2019-04-14T21:58:19.289Z,6.12
2019-04-14T22:00:53.538Z,6.42
2019-04-14T22:03:43.080Z,4.83
2019-04-14T22:06:14.336Z,4.90
2019-04-14T22:08:45.257Z,4.95
2019-04-14T22:11:27.402Z,4.17
2019-04-14T22:13:56.784Z,4.90
2019-04-14T22:16:27.448Z,4.67
2019-04-14T22:18:57.232Z,5.42
2019-04-14T22:21:27.478Z,4.95
2019-04-14T22:24:01.730Z,3.90
2019-04-14T22:26:27.688Z,5.20
2019-04-14T22:28:56.964Z,5.22
2019-04-14T22:31:26.272Z,4.62
2019-04-14T22:33:55.551Z,5.53
2019-04-14T22:36:24.828Z,6.12
2019-04-14T22:38:54.159Z,5.37
2019-04-14T22:41:23.440Z,6.90
2019-04-14T22:43:52.848Z,5.40
2019-04-14T22:46:22.118Z,6.40
2019-04-14T22:48:51.404Z,6.25
2019-04-14T22:51:20.684Z,5.75
2019-04-14T22:53:50.007Z,4.70
2019-04-14T22:56:19.301Z,5.55
2019-04-14T22:58:48.587Z,5.12
2019-04-14T23:01:34.571Z,4.50
2019-04-14T23:04:11.516Z,5.42
2019-04-14T23:06:58.709Z,4.65
2019-04-14T23:09:29.628Z,5.60
2019-04-14T23:12:15.610Z,5.42
2019-04-14T23:14:46.578Z,5.28
2019-04-14T23:17:23.376Z,4.17
2019-04-14T23:20:03.374Z,5.58
2019-04-14T23:22:40.128Z,6.00
2019-04-14T23:25:11.486Z,5.55
2019-04-14T23:27:42.408Z,5.35
2019-04-14T23:30:12.922Z,5.08
2019-04-14T23:32:42.239Z,5.22
2019-04-14T23:35:31.001Z,4.15
2019-04-14T23:38:12.460Z,6.08
2019-04-14T23:40:41.743Z,4.58
2019-04-14T23:43:11.087Z,3.95
2019-04-14T23:45:53.252Z,6.85
2019-04-14T23:48:22.544Z,4.03
2019-04-14T23:50:51.844Z,5.58
2019-04-14T23:53:33.472Z,4.67
2019-04-14T23:56:02.774Z,6.62
2019-04-14T23:58:48.240Z,4.53
